Time;durP1;ratioP1;P1;durP2;ratioP2;P2;SDS_P1;SDS_P2;PMS_P1;PMS_P2;Temp;Humidity;BMP_temperature;BMP_pressure;BME280_temperature;BME280_humidity;BME280_pressure;Samples;Min_cycle;Max_cycle;Signal;HPM_P1;HPM_P2
2023/06/20 00:01:31;;;;;;;4.28;0.82;;;14.50;99.90;;;;;;4976667;28;20050;-87
2023/06/20 00:03:56;;;;;;;1.55;1.13;;;15.40;99.90;;;;;;4976930;28;20042;-87
2023/06/20 00:06:22;;;;;;;1.05;0.68;;;14.60;99.90;;;;;;4975519;28;20074;-87
2023/06/20 00:08:48;;;;;;;4.00;1.20;;;14.60;99.90;;;;;;4992092;28;20113;-88
2023/06/20 00:11:14;;;;;;;0.85;0.82;;;15.60;99.90;;;;;;4976789;28;20512;-87
2023/06/20 00:13:42;;;;;;;2.47;1.02;;;14.40;99.90;;;;;;4975725;28;20093;-88
2023/06/20 00:16:09;;;;;;;1.42;1.30;;;14.40;99.90;;;;;;4975547;28;20133;-87
2023/06/20 00:18:34;;;;;;;2.03;1.00;;;14.40;99.90;;;;;;4975953;28;20078;-87
2023/06/20 00:21:00;;;;;;;1.38;0.88;;;14.40;99.90;;;;;;4975585;28;20055;-87
2023/06/20 00:23:29;;;;;;;0.75;0.60;;;14.40;99.90;;;;;;4992078;28;20043;-87
2023/06/20 00:25:58;;;;;;;2.20;1.50;;;15.70;99.90;;;;;;4975439;28;20058;-87
2023/06/20 00:28:23;;;;;;;2.47;1.42;;;15.70;99.90;;;;;;4977082;28;20552;-87
2023/06/20 00:30:50;;;;;;;2.33;1.52;;;14.50;99.90;;;;;;4976301;28;20054;-87
2023/06/20 00:33:18;;;;;;;6.97;2.83;;;14.60;99.90;;;;;;4975534;28;20049;-88
2023/06/20 00:35:44;;;;;;;1.75;1.27;;;14.70;99.90;;;;;;4992144;28;20078;-87
2023/06/20 00:38:09;;;;;;;1.15;0.98;;;14.80;99.90;;;;;;4991508;28;20398;-88
2023/06/20 00:40:35;;;;;;;1.27;1.17;;;14.70;99.90;;;;;;4979451;28;20078;-88
2023/06/20 00:43:01;;;;;;;2.70;1.50;;;14.80;99.90;;;;;;4993911;28;20137;-88
2023/06/20 00:45:32;;;;;;;2.15;1.58;;;15.20;99.90;;;;;;4996292;28;20050;-88
2023/06/20 00:47:59;;;;;;;1.83;1.65;;;14.80;99.90;;;;;;4996538;28;20100;-88
2023/06/20 00:50:26;;;;;;;1.58;1.35;;;15.20;99.90;;;;;;4995059;28;20053;-88
2023/06/20 00:52:57;;;;;;;0.77;0.60;;;15.90;99.90;;;;;;4994735;28;20054;-88
2023/06/20 00:55:23;;;;;;;0.70;0.63;;;14.80;99.90;;;;;;5011052;28;20054;-88
2023/06/20 00:57:48;;;;;;;0.85;0.68;;;14.80;99.90;;;;;;5010967;28;20100;-88
2023/06/20 01:00:14;;;;;;;1.30;0.68;;;14.80;99.90;;;;;;4996834;28;20042;-88
2023/06/20 01:02:46;;;;;;;0.32;0.32;;;14.80;99.90;;;;;;4994843;28;20038;-88
2023/06/20 01:05:14;;;;;;;1.70;1.02;;;14.80;99.90;;;;;;4994723;28;20053;-87
2023/06/20 01:08:22;;;;;;;1.60;1.20;;;14.90;99.90;;;;;;4995030;28;20061;-87
2023/06/20 01:11:03;;;;;;;1.05;0.88;;;14.90;99.90;;;;;;4977753;28;20042;-87
2023/06/20 01:13:47;;;;;;;2.78;1.52;;;14.80;99.90;;;;;;5010890;28;20056;-87
2023/06/20 01:16:42;;;;;;;0.38;0.35;;;14.80;99.90;;;;;;4996308;28;20405;-88
2023/06/20 01:19:34;;;;;;;0.98;0.70;;;14.90;99.90;;;;;;4994182;28;20042;-87
2023/06/20 01:22:07;;;;;;;0.85;0.82;;;14.80;99.90;;;;;;4996397;28;20049;-87
2023/06/20 01:24:46;;;;;;;1.30;0.98;;;14.90;99.90;;;;;;4994617;28;20050;-87
2023/06/20 01:27:37;;;;;;;1.13;1.00;;;14.90;99.90;;;;;;5002325;28;20042;-87
2023/06/20 01:30:52;;;;;;;1.10;1.00;;;15.00;99.90;;;;;;5020083;28;20110;-87
2023/06/20 01:33:27;;;;;;;1.40;1.13;;;15.10;99.90;;;;;;4989192;28;20085;-88
2023/06/20 01:35:54;;;;;;;4.00;1.10;;;16.30;99.90;;;;;;4994314;28;20133;-87
2023/06/20 01:38:24;;;;;;;2.67;1.95;;;15.30;99.90;;;;;;4994209;28;20069;-88
2023/06/20 01:40:51;;;;;;;5.68;2.63;;;15.60;99.90;;;;;;4975688;28;20046;-88
2023/06/20 01:43:20;;;;;;;5.35;0.98;;;15.30;99.90;;;;;;4974328;28;20046;-87
2023/06/20 01:45:47;;;;;;;1.58;0.90;;;15.30;99.90;;;;;;4974682;28;20066;-89
2023/06/20 01:48:14;;;;;;;1.35;1.08;;;16.60;99.90;;;;;;4975186;28;20544;-90
2023/06/20 01:50:41;;;;;;;0.40;0.40;;;16.20;99.90;;;;;;4974410;28;20113;-88
2023/06/20 01:53:08;;;;;;;2.92;1.13;;;15.20;99.90;;;;;;4957981;28;20058;-87
2023/06/20 01:55:36;;;;;;;0.75;0.63;;;15.20;99.90;;;;;;4974472;28;20433;-87
2023/06/20 01:58:03;;;;;;;1.15;1.10;;;15.20;99.90;;;;;;4974067;28;20047;-88
2023/06/20 02:00:31;;;;;;;1.92;1.23;;;15.20;99.90;;;;;;4973788;28;20050;-87
2023/06/20 02:02:59;;;;;;;4.38;1.55;;;15.20;99.90;;;;;;4989902;28;20086;-88
2023/06/20 02:05:28;;;;;;;3.55;1.83;;;15.20;99.90;;;;;;4990240;28;20047;-88
2023/06/20 02:07:55;;;;;;;0.52;0.50;;;15.20;99.90;;;;;;4990405;28;20047;-87
2023/06/20 02:10:21;;;;;;;0.88;0.73;;;16.40;99.90;;;;;;4989548;28;20070;-88
2023/06/20 02:12:50;;;;;;;1.73;1.38;;;15.20;99.90;;;;;;4973344;28;20063;-87
2023/06/20 02:15:18;;;;;;;7.63;2.42;;;15.20;99.90;;;;;;4974577;28;20046;-87
2023/06/20 02:17:45;;;;;;;0.63;0.63;;;15.20;99.90;;;;;;4990009;28;20058;-88
2023/06/20 02:20:12;;;;;;;1.83;1.23;;;15.20;99.90;;;;;;4974263;28;20047;-88
2023/06/20 02:22:39;;;;;;;1.33;1.08;;;15.20;99.90;;;;;;4974004;28;20043;-88
2023/06/20 02:25:07;;;;;;;4.50;2.70;;;15.20;99.90;;;;;;4990331;28;20061;-87
2023/06/20 02:27:35;;;;;;;1.85;1.52;;;15.20;99.90;;;;;;4973962;28;20050;-87
2023/06/20 02:30:03;;;;;;;1.52;1.15;;;15.20;99.90;;;;;;4990476;28;20094;-87
2023/06/20 02:32:29;;;;;;;1.85;0.90;;;15.30;99.90;;;;;;4975364;28;20039;-88
2023/06/20 02:34:56;;;;;;;12.05;1.83;;;15.30;99.90;;;;;;4975854;28;20108;-88
2023/06/20 02:37:28;;;;;;;4.53;1.60;;;16.20;99.90;;;;;;4990367;28;20070;-88
2023/06/20 02:39:55;;;;;;;2.20;2.00;;;16.00;99.90;;;;;;4975415;28;20039;-88
2023/06/20 02:42:21;;;;;;;3.38;2.10;;;15.40;99.90;;;;;;4989152;28;20078;-88
2023/06/20 02:44:47;;;;;;;1.13;0.98;;;15.80;99.90;;;;;;4972503;28;20093;-88
2023/06/20 02:47:33;;;;;;;6.47;3.78;;;15.60;99.90;;;;;;4989260;28;20433;-87
2023/06/20 02:50:23;;;;;;;2.00;0.88;;;15.50;99.90;;;;;;4973818;28;20274;-87
2023/06/20 02:53:31;;;;;;;1.23;1.00;;;15.50;99.90;;;;;;4989744;28;20113;-87
2023/06/20 02:56:00;;;;;;;;;;;15.60;99.90;;;;;;4933606;29;20083;-87
2023/06/20 02:58:27;;;;;;;1.25;1.08;;;15.70;99.90;;;;;;4964833;28;19925;-88
2023/06/20 03:00:54;;;;;;;1.80;1.48;;;15.60;99.90;;;;;;4956998;28;20050;-88
2023/06/20 03:03:24;;;;;;;4.50;1.58;;;15.60;99.90;;;;;;4989012;28;20043;-88
2023/06/20 03:05:56;;;;;;;3.75;2.25;;;15.60;99.90;;;;;;4988627;28;20094;-88
2023/06/20 03:08:25;;;;;;;5.03;2.35;;;15.60;99.90;;;;;;4977481;28;20057;-87
2023/06/20 03:10:52;;;;;;;5.13;1.75;;;15.60;99.90;;;;;;4977229;28;20059;-88
2023/06/20 03:13:17;;;;;;;1.42;1.13;;;15.50;99.90;;;;;;4976038;28;20050;-88
2023/06/20 03:15:43;;;;;;;2.65;1.08;;;15.60;99.90;;;;;;4975712;28;20101;-87
2023/06/20 03:18:11;;;;;;;2.35;2.15;;;15.60;99.90;;;;;;4991700;28;20049;-88
2023/06/20 03:20:37;;;;;;;2.35;1.40;;;15.60;99.90;;;;;;4977313;28;20173;-87
2023/06/20 03:23:03;;;;;;;2.08;1.88;;;15.60;99.90;;;;;;4975062;28;20086;-88
2023/06/20 03:25:29;;;;;;;1.73;1.48;;;15.60;99.90;;;;;;4975345;28;20054;-88
2023/06/20 03:27:55;;;;;;;5.32;1.50;;;15.60;99.90;;;;;;4976571;28;20054;-87
2023/06/20 03:30:21;;;;;;;3.17;2.13;;;15.60;99.90;;;;;;4976853;28;20051;-88
2023/06/20 03:32:46;;;;;;;2.53;1.25;;;15.60;99.90;;;;;;4992029;28;20545;-88
2023/06/20 03:35:12;;;;;;;1.55;0.98;;;15.60;99.90;;;;;;4992380;28;20080;-87
2023/06/20 03:37:38;;;;;;;1.13;1.02;;;15.60;99.90;;;;;;4976418;28;20050;-87
2023/06/20 03:40:05;;;;;;;1.50;1.20;;;15.60;99.90;;;;;;4992706;28;20463;-87
2023/06/20 03:42:31;;;;;;;1.10;1.00;;;15.60;99.90;;;;;;4976376;28;20465;-88
2023/06/20 03:44:58;;;;;;;2.70;1.38;;;15.60;99.90;;;;;;4977494;28;20090;-87
2023/06/20 03:47:23;;;;;;;1.92;1.60;;;16.50;99.90;;;;;;4992401;28;20522;-88
2023/06/20 03:49:49;;;;;;;5.85;2.50;;;15.70;99.90;;;;;;4992174;28;20054;-87
2023/06/20 03:52:15;;;;;;;1.33;1.10;;;16.70;99.90;;;;;;4976624;28;20046;-88
2023/06/20 03:54:41;;;;;;;3.40;2.03;;;15.70;99.90;;;;;;4976828;28;20054;-88
2023/06/20 03:57:07;;;;;;;1.95;0.70;;;15.80;99.90;;;;;;4976662;28;20055;-88
2023/06/20 03:59:32;;;;;;;1.52;1.42;;;15.80;99.90;;;;;;4975619;28;20875;-88
2023/06/20 04:01:58;;;;;;;3.92;2.03;;;15.80;99.90;;;;;;4975575;28;20051;-87
2023/06/20 04:04:24;;;;;;;2.85;1.90;;;16.00;99.90;;;;;;4977641;28;20078;-88
2023/06/20 04:06:50;;;;;;;1.38;1.23;;;15.90;99.90;;;;;;4976283;28;20401;-88
2023/06/20 04:09:17;;;;;;;2.28;1.55;;;16.40;99.90;;;;;;4975638;28;20085;-87
2023/06/20 04:11:43;;;;;;;1.88;1.52;;;16.00;99.90;;;;;;4975866;28;20090;-87
2023/06/20 04:14:09;;;;;;;3.63;1.77;;;17.30;99.90;;;;;;4974374;28;20082;-88
2023/06/20 04:16:35;;;;;;;0.75;0.75;;;16.00;99.90;;;;;;4976448;28;20051;-87
2023/06/20 04:19:01;;;;;;;7.07;2.63;;;16.10;99.90;;;;;;4989831;28;20129;-87
2023/06/20 04:21:27;;;;;;;2.63;1.80;;;16.10;99.90;;;;;;4976685;28;20685;-87
2023/06/20 04:23:53;;;;;;;2.65;1.65;;;16.10;99.90;;;;;;4977029;28;20050;-87
2023/06/20 04:26:19;;;;;;;2.08;1.67;;;16.20;99.90;;;;;;4976022;28;20145;-87
2023/06/20 04:28:45;;;;;;;1.75;1.60;;;16.50;99.90;;;;;;4977411;28;20050;-87
2023/06/20 04:31:11;;;;;;;5.00;2.20;;;16.20;99.90;;;;;;4975606;28;20537;-87
2023/06/20 04:33:43;;;;;;;0.68;0.68;;;16.30;81.00;;;;;;4976907;28;20102;-89
2023/06/20 04:36:13;;;;;;;5.78;2.47;;;16.40;1.00;;;;;;4975532;28;20134;-89
2023/06/20 04:38:40;;;;;;;2.38;1.40;;;16.50;1.00;;;;;;4991838;28;20042;-88
2023/06/20 04:41:05;;;;;;;1.55;1.33;;;16.60;99.90;;;;;;4976101;28;20401;-88
2023/06/20 04:43:32;;;;;;;2.42;1.27;;;16.60;99.90;;;;;;4977594;28;20061;-88
2023/06/20 04:45:58;;;;;;;0.70;0.65;;;16.70;99.90;;;;;;4977360;28;20999;-88
2023/06/20 04:48:28;;;;;;;1.08;0.80;;;16.80;99.90;;;;;;4975950;28;20090;-88
2023/06/20 04:50:55;;;;;;;4.93;1.30;;;16.90;47.10;;;;;;4977087;28;20405;-89
2023/06/20 04:53:22;;;;;;;5.85;1.23;;;17.90;99.90;;;;;;4990397;28;20046;-88
2023/06/20 04:55:49;;;;;;;0.57;0.57;;;18.10;99.90;;;;;;4972928;28;20580;-89
2023/06/20 04:58:15;;;;;;;0.63;0.57;;;17.30;3.60;;;;;;4974109;28;20073;-89
2023/06/20 05:00:41;;;;;;;2.05;1.38;;;17.40;99.90;;;;;;4974088;28;20046;-89
2023/06/20 05:03:10;;;;;;;1.38;1.00;;;18.00;99.90;;;;;;4974108;28;20133;-89
2023/06/20 05:05:36;;;;;;;6.15;2.03;;;17.70;99.90;;;;;;4973992;28;20520;-89
2023/06/20 05:08:02;;;;;;;1.52;1.10;;;19.20;11.90;;;;;;4976104;28;20038;-89
2023/06/20 05:10:28;;;;;;;1.25;0.98;;;17.90;99.90;;;;;;4990688;28;20064;-89
2023/06/20 05:12:54;;;;;;;1.42;0.63;;;18.00;99.90;;;;;;4973833;28;20927;-89
2023/06/20 05:15:23;;;;;;;0.88;0.80;;;18.10;99.90;;;;;;4973998;28;20042;-89
2023/06/20 05:17:53;;;;;;;4.90;1.13;;;18.20;1.00;;;;;;4973728;28;20050;-88
2023/06/20 05:20:19;;;;;;;2.05;1.30;;;19.70;99.90;;;;;;4973664;28;20082;-90
2023/06/20 05:22:45;;;;;;;1.85;1.48;;;18.10;99.90;;;;;;4989909;28;20047;-90
2023/06/20 05:25:12;;;;;;;0.63;0.55;;;19.40;99.90;;;;;;4989829;28;20126;-89
2023/06/20 05:27:37;;;;;;;1.38;1.02;;;18.70;99.90;;;;;;4973394;28;20070;-89
2023/06/20 05:30:04;;;;;;;3.50;1.58;;;18.60;99.90;;;;;;4973330;28;20042;-89
2023/06/20 05:32:30;;;;;;;6.32;2.40;;;18.60;99.90;;;;;;4989558;28;20109;-89
2023/06/20 05:34:56;;;;;;;0.68;0.65;;;19.90;99.90;;;;;;4974011;28;20082;-90
2023/06/20 05:37:21;;;;;;;1.33;1.23;;;18.60;99.90;;;;;;4989420;28;20097;-89
2023/06/20 05:39:48;;;;;;;1.80;1.67;;;19.90;99.90;;;;;;4972988;28;20043;-89
2023/06/20 05:42:13;;;;;;;1.73;1.02;;;18.70;99.90;;;;;;4989030;28;20054;-89
2023/06/20 05:44:39;;;;;;;1.13;0.90;;;18.60;73.90;;;;;;4973039;28;20046;-89
2023/06/20 05:47:05;;;;;;;1.48;1.25;;;19.50;99.90;;;;;;4972516;28;20039;-89
2023/06/20 05:49:31;;;;;;;1.80;0.70;;;18.70;85.70;;;;;;4988206;28;20134;-90
2023/06/20 05:51:57;;;;;;;1.00;0.93;;;18.80;99.50;;;;;;4973227;28;20053;-89
2023/06/20 05:54:24;;;;;;;0.60;0.60;;;20.00;49.00;;;;;;4973525;28;20047;-90
2023/06/20 05:56:50;;;;;;;1.00;0.68;;;19.00;26.70;;;;;;4971403;28;20086;-89
2023/06/20 05:59:16;;;;;;;2.05;1.08;;;19.10;1.00;;;;;;4969050;28;20039;-89
2023/06/20 06:01:41;;;;;;;0.60;0.60;;;19.40;1.00;;;;;;4967516;28;20461;-89
2023/06/20 06:04:07;;;;;;;3.60;1.88;;;19.40;1.00;;;;;;4967159;28;20039;-89
2023/06/20 06:06:33;;;;;;;1.92;1.27;;;19.50;1.00;;;;;;4983296;28;20097;-89
2023/06/20 06:08:59;;;;;;;13.15;0.88;;;19.60;1.00;;;;;;4967412;28;20146;-89
2023/06/20 06:11:25;;;;;;;2.15;1.38;;;19.90;1.00;;;;;;4967002;28;20137;-89
2023/06/20 06:13:51;;;;;;;1.35;0.93;;;20.00;99.90;;;;;;4967702;28;20059;-90
2023/06/20 06:16:20;;;;;;;1.65;1.48;;;20.20;99.90;;;;;;4967417;28;20532;-89
2023/06/20 06:18:45;;;;;;;0.68;0.50;;;20.50;99.90;;;;;;4983773;28;20093;-89
2023/06/20 06:21:11;;;;;;;2.22;1.38;;;20.50;99.90;;;;;;4967242;28;20062;-90
2023/06/20 06:23:37;;;;;;;2.70;1.48;;;20.70;99.90;;;;;;4983693;28;20046;-89
2023/06/20 06:26:04;;;;;;;2.35;1.27;;;20.90;99.90;;;;;;4966648;28;20058;-89
2023/06/20 06:28:30;;;;;;;1.50;1.20;;;20.90;99.90;;;;;;4967393;28;20051;-89
2023/06/20 06:31:01;;;;;;;0.45;0.45;;;20.80;99.90;;;;;;4974104;28;20927;-89
2023/06/20 06:33:28;;;;;;;1.05;0.95;;;21.00;99.90;;;;;;4970148;28;20059;-90
2023/06/20 06:35:55;;;;;;;1.50;1.23;;;21.40;99.90;;;;;;4969653;28;20082;-90
2023/06/20 06:38:22;;;;;;;3.53;1.83;;;21.60;99.90;;;;;;4969533;28;20066;-90
2023/06/20 06:40:48;;;;;;;1.20;0.80;;;22.50;99.90;;;;;;4968169;28;20058;-90
2023/06/20 06:43:15;;;;;;;0.90;0.82;;;21.80;99.90;;;;;;4988439;28;20057;-90
2023/06/20 06:45:40;;;;;;;3.10;1.77;;;21.80;99.90;;;;;;4983325;28;20030;-90
2023/06/20 06:48:06;;;;;;;4.82;2.10;;;23.00;99.90;;;;;;5002493;28;20110;-90
2023/06/20 06:50:32;;;;;;;4.60;1.42;;;22.40;99.90;;;;;;4982443;28;20405;-90
2023/06/20 06:52:58;;;;;;;0.70;0.57;;;22.60;99.90;;;;;;4983054;28;20106;-89
2023/06/20 06:55:24;;;;;;;2.97;1.08;;;22.70;99.90;;;;;;4981142;28;20955;-89
2023/06/20 06:57:49;;;;;;;2.42;2.22;;;22.40;92.80;;;;;;4977281;28;20139;-89
2023/06/20 07:00:15;;;;;;;2.20;1.63;;;22.40;91.10;;;;;;4973120;28;20050;-91
2023/06/20 07:02:43;;;;;;;1.60;0.98;;;22.70;94.00;;;;;;4970255;28;20094;-83
2023/06/20 07:05:09;;;;;;;0.93;0.75;;;22.70;96.10;;;;;;4972191;28;20047;-83
2023/06/20 07:07:36;;;;;;;0.52;0.50;;;22.90;99.90;;;;;;4970408;28;20391;-83
2023/06/20 07:10:01;;;;;;;1.08;0.98;;;23.40;93.70;;;;;;4970819;28;20050;-83
2023/06/20 07:12:27;;;;;;;0.63;0.32;;;23.50;95.60;;;;;;4971583;28;20065;-83
2023/06/20 07:14:56;;;;;;;2.13;0.82;;;23.30;92.60;;;;;;4970909;28;20813;-83
2023/06/20 07:17:25;;;;;;;1.13;0.93;;;23.20;76.80;;;;;;4970491;28;20828;-83
2023/06/20 07:19:51;;;;;;;2.67;1.25;;;23.30;86.10;;;;;;4969725;28;20043;-83
2023/06/20 07:22:17;;;;;;;1.75;1.20;;;23.10;80.90;;;;;;4970913;28;20046;-83
2023/06/20 07:24:43;;;;;;;0.63;0.63;;;22.80;59.00;;;;;;4971474;28;20053;-83
2023/06/20 07:27:09;;;;;;;1.40;0.82;;;23.10;78.30;;;;;;4970951;28;20046;-83
2023/06/20 07:29:35;;;;;;;2.03;0.70;;;23.00;79.00;;;;;;4970681;28;20131;-83
2023/06/20 07:32:00;;;;;;;3.53;1.33;;;23.10;65.90;;;;;;4970304;28;20178;-83
2023/06/20 07:34:26;;;;;;;1.58;1.08;;;23.00;58.70;;;;;;4970444;28;20038;-83
2023/06/20 07:36:51;;;;;;;2.58;1.42;;;22.80;62.40;;;;;;4970519;28;20434;-83
2023/06/20 07:39:17;;;;;;;1.15;0.82;;;22.70;72.20;;;;;;4969920;28;20045;-83
2023/06/20 07:41:43;;;;;;;3.35;1.88;;;22.70;69.10;;;;;;4969470;28;20054;-83
2023/06/20 07:44:10;;;;;;;3.90;2.42;;;22.70;84.60;;;;;;4984212;28;20054;-83
2023/06/20 07:46:38;;;;;;;1.92;1.15;;;22.90;77.30;;;;;;4969200;28;20369;-83
2023/06/20 07:49:03;;;;;;;0.70;0.70;;;24.70;97.50;;;;;;4967973;28;20058;-83
2023/06/20 07:51:33;;;;;;;2.60;1.70;;;24.10;64.50;;;;;;4969330;28;20046;-83
2023/06/20 07:53:59;;;;;;;10.02;1.58;;;24.70;62.70;;;;;;4969512;28;20050;-83
2023/06/20 07:56:25;;;;;;;0.20;0.20;;;25.00;78.70;;;;;;4968647;28;20691;-84
2023/06/20 07:58:51;;;;;;;1.58;1.05;;;24.20;87.20;;;;;;4998608;28;20058;-84
2023/06/20 08:01:17;;;;;;;2.47;1.55;;;23.90;42.90;;;;;;4999168;28;20117;-84
2023/06/20 08:03:43;;;;;;;1.67;1.13;;;23.50;46.80;;;;;;4967743;28;20051;-84
2023/06/20 08:06:12;;;;;;;0.85;0.75;;;23.20;51.60;;;;;;4967761;28;20117;-84
2023/06/20 08:08:38;;;;;;;0.95;0.88;;;23.20;70.90;;;;;;4967781;28;20138;-84
2023/06/20 08:11:04;;;;;;;0.40;0.40;;;23.00;68.60;;;;;;4960248;28;20059;-84
2023/06/20 08:13:30;;;;;;;1.65;1.50;;;22.90;67.90;;;;;;4960312;28;20164;-84
2023/06/20 08:15:56;;;;;;;1.40;1.27;;;22.70;80.40;;;;;;4967193;28;20054;-84
2023/06/20 08:18:22;;;;;;;1.05;0.95;;;22.70;93.30;;;;;;4967665;28;20038;-85
2023/06/20 08:20:48;;;;;;;1.75;1.55;;;22.50;91.90;;;;;;4967604;28;20057;-85
2023/06/20 08:23:27;;;;;;;1.52;0.75;;;22.70;99.90;;;;;;4967563;28;20073;-85
2023/06/20 08:25:56;;;;;;;1.17;1.08;;;22.60;99.90;;;;;;4968046;28;20051;-84
2023/06/20 08:28:23;;;;;;;2.90;0.93;;;22.60;99.90;;;;;;4967980;28;20066;-84
2023/06/20 08:30:48;;;;;;;2.38;1.17;;;22.50;99.90;;;;;;4981975;28;20047;-84
2023/06/20 08:33:14;;;;;;;1.23;1.08;;;22.50;99.90;;;;;;4967434;28;20721;-84
2023/06/20 08:35:40;;;;;;;2.35;1.27;;;22.60;99.90;;;;;;4966952;28;20054;-85
2023/06/20 08:38:06;;;;;;;3.25;1.77;;;22.80;99.90;;;;;;4966111;28;20654;-84
2023/06/20 08:40:32;;;;;;;0.98;0.77;;;22.80;99.90;;;;;;4967519;28;20154;-84
2023/06/20 08:42:58;;;;;;;2.03;1.48;;;22.80;99.90;;;;;;4967511;28;20052;-84
2023/06/20 08:45:24;;;;;;;1.42;1.27;;;22.80;99.90;;;;;;4981893;28;20516;-84
2023/06/20 08:47:50;;;;;;;1.30;0.98;;;23.20;99.90;;;;;;4969794;28;20442;-84
2023/06/20 08:50:15;;;;;;;1.52;1.42;;;23.20;99.90;;;;;;4970620;28;20050;-84
2023/06/20 08:52:49;;;;;;;4.40;1.35;;;23.20;99.90;;;;;;4981160;28;20086;-84
2023/06/20 08:55:15;;;;;;;1.55;1.13;;;23.50;99.90;;;;;;4967140;28;20109;-84
2023/06/20 08:57:41;;;;;;;2.30;1.77;;;23.70;99.90;;;;;;4966483;28;20043;-84
2023/06/20 09:00:11;;;;;;;3.13;1.40;;;23.90;99.90;;;;;;4966545;28;20046;-84
2023/06/20 09:02:37;;;;;;;2.40;1.00;;;23.90;99.90;;;;;;4966335;28;20053;-84
2023/06/20 09:05:04;;;;;;;3.67;1.33;;;24.30;99.90;;;;;;4980396;28;20050;-84
2023/06/20 09:07:38;;;;;;;0.60;0.60;;;24.70;99.90;;;;;;4965328;28;20688;-84
2023/06/20 09:10:11;;;;;;;0.98;0.88;;;25.20;99.90;;;;;;4967000;28;20134;-84
2023/06/20 09:12:56;;;;;;;2.92;0.80;;;25.00;99.90;;;;;;4982006;28;20061;-83
2023/06/20 09:15:25;;;;;;;0.82;0.77;;;25.10;99.90;;;;;;4966755;28;20316;-84
2023/06/20 09:18:01;;;;;;;1.33;1.10;;;25.00;99.90;;;;;;4965496;28;20066;-84
2023/06/20 09:20:28;;;;;;;1.90;1.23;;;25.30;99.90;;;;;;4967836;28;20082;-90
2023/06/20 09:22:55;;;;;;;0.77;0.77;;;25.30;91.50;;;;;;4968553;28;20592;-91
2023/06/20 09:25:25;;;;;;;1.38;1.23;;;25.20;97.60;;;;;;4970475;28;20054;-90
2023/06/20 09:27:52;;;;;;;0.73;0.73;;;26.00;99.90;;;;;;4970026;28;20412;-90
2023/06/20 09:30:18;;;;;;;1.10;0.93;;;26.50;95.70;;;;;;4984229;28;20057;-90
2023/06/20 09:32:46;;;;;;;1.52;0.82;;;26.40;80.40;;;;;;4983461;28;20051;-90
2023/06/20 09:35:16;;;;;;;0.50;0.28;;;26.70;65.70;;;;;;4967804;28;20133;-90
2023/06/20 09:37:45;;;;;;;0.22;0.22;;;26.80;40.20;;;;;;4984105;28;20062;-90
2023/06/20 09:40:19;;;;;;;0.30;0.30;;;27.20;46.30;;;;;;4983904;28;20061;-89
2023/06/20 09:42:46;;;;;;;2.90;1.08;;;27.40;13.30;;;;;;4983654;28;20049;-89
2023/06/20 09:45:14;;;;;;;0.90;0.60;;;27.70;3.70;;;;;;4983850;28;20137;-90
2023/06/20 09:47:41;;;;;;;0.70;0.60;;;27.30;1.00;;;;;;4968844;28;20082;-89
2023/06/20 09:50:19;;;;;;;0.50;0.50;;;27.10;1.00;;;;;;4983532;28;20058;-89
2023/06/20 09:53:10;;;;;;;2.03;1.13;;;27.70;1.00;;;;;;4983449;28;20046;-89
2023/06/20 09:55:36;;;;;;;2.22;0.77;;;27.80;1.00;;;;;;4971908;28;20050;-89
2023/06/20 09:58:04;;;;;;;0.95;0.73;;;28.10;1.00;;;;;;4966853;28;20065;-90
2023/06/20 10:00:31;;;;;;;2.00;0.50;;;28.10;1.00;;;;;;4968441;28;20047;-89
2023/06/20 10:03:04;;;;;;;1.00;0.82;;;28.30;1.00;;;;;;4982514;28;20101;-90
2023/06/20 10:05:32;;;;;;;2.60;1.02;;;28.60;1.00;;;;;;4967913;28;20923;-89
2023/06/20 10:07:59;;;;;;;1.17;0.77;;;28.60;1.00;;;;;;4982859;28;20847;-89
2023/06/20 10:10:25;;;;;;;2.45;1.30;;;29.00;1.00;;;;;;4983045;28;20421;-89
2023/06/20 10:12:51;;;;;;;0.82;0.77;;;29.20;1.00;;;;;;4968476;28;20070;-89
2023/06/20 10:15:17;;;;;;;1.67;1.23;;;28.50;1.00;;;;;;4969092;28;20098;-89
2023/06/20 10:17:47;;;;;;;2.78;1.15;;;28.70;1.00;;;;;;4987252;28;20137;-89
2023/06/20 10:20:33;;;;;;;0.55;0.35;;;29.10;1.00;;;;;;4987583;28;20090;-89
2023/06/20 10:23:04;;;;;;;3.30;0.98;;;29.40;1.00;;;;;;4987129;28;20093;-89
2023/06/20 10:25:31;;;;;;;0.20;0.20;;;29.40;1.00;;;;;;4972148;28;20046;-89
2023/06/20 10:28:00;;;;;;;2.83;1.25;;;30.40;1.00;;;;;;4970392;28;20050;-89
2023/06/20 10:30:50;;;;;;;1.00;0.88;;;29.40;1.00;;;;;;4970283;28;20051;-89
2023/06/20 10:33:29;;;;;;;0.45;0.45;;;28.90;1.00;;;;;;4986499;28;20133;-89
2023/06/20 10:36:03;;;;;;;0.70;0.60;;;29.10;1.00;;;;;;4970592;28;20058;-89
2023/06/20 10:38:31;;;;;;;0.90;0.53;;;29.30;1.00;;;;;;4970081;28;20046;-89
2023/06/20 10:41:24;;;;;;;2.08;0.55;;;29.20;1.00;;;;;;4986234;28;20290;-89
2023/06/20 10:44:03;;;;;;;1.13;0.93;;;29.30;1.00;;;;;;4968922;28;20145;-89
2023/06/20 10:46:46;;;;;;;4.18;1.20;;;28.70;99.90;;;;;;4971031;28;20139;-89
2023/06/20 10:49:12;;;;;;;1.45;0.65;;;29.00;1.00;;;;;;4985705;28;20106;-89
2023/06/20 10:51:48;;;;;;;1.67;0.70;;;29.30;99.90;;;;;;4971398;28;20061;-88
2023/06/20 10:54:15;;;;;;;1.70;1.10;;;29.10;99.90;;;;;;4971036;28;20510;-89
2023/06/20 10:56:46;;;;;;;0.38;0.38;;;29.50;1.00;;;;;;4986045;28;20066;-89
2023/06/20 10:59:17;;;;;;;0.82;0.70;;;29.80;1.00;;;;;;4971192;28;20058;-88
2023/06/20 11:01:43;;;;;;;1.00;0.43;;;29.50;1.00;;;;;;4985607;28;20093;-89
2023/06/20 11:04:10;;;;;;;0.73;0.63;;;30.30;1.00;;;;;;4969632;28;20050;-89
2023/06/20 11:06:37;;;;;;;1.20;0.45;;;30.00;1.00;;;;;;4985779;28;20386;-89
2023/06/20 11:09:03;;;;;;;0.30;0.30;;;30.40;1.00;;;;;;4985999;28;20062;-89
2023/06/20 11:11:31;;;;;;;0.38;0.38;;;30.50;1.00;;;;;;4969833;28;20414;-89
2023/06/20 11:14:12;;;;;;;1.92;1.42;;;30.60;1.00;;;;;;4970735;28;20057;-89
2023/06/20 11:16:39;;;;;;;0.85;0.65;;;30.70;1.00;;;;;;4970454;28;21021;-89
2023/06/20 11:19:05;;;;;;;0.98;0.88;;;31.00;1.00;;;;;;4985569;28;20457;-89
2023/06/20 11:21:30;;;;;;;0.95;0.35;;;29.90;99.90;;;;;;4969011;28;20046;-89
2023/06/20 11:24:00;;;;;;;0.57;0.57;;;30.00;99.90;;;;;;4970398;28;20101;-89
2023/06/20 11:26:30;;;;;;;0.25;0.20;;;29.60;99.90;;;;;;4970383;28;20405;-88
2023/06/20 11:29:03;;;;;;;0.47;0.47;;;29.90;99.90;;;;;;4969745;28;20054;-89
2023/06/20 11:31:29;;;;;;;0.77;0.47;;;30.00;99.90;;;;;;4970270;28;20058;-89
2023/06/20 11:34:02;;;;;;;1.17;0.68;;;30.00;99.90;;;;;;4985291;28;20474;-89
2023/06/20 11:36:31;;;;;;;0.10;0.10;;;30.00;99.90;;;;;;4968573;28;20055;-89
2023/06/20 11:39:07;;;;;;;0.90;0.77;;;30.40;99.90;;;;;;4984799;28;20138;-88
2023/06/20 11:41:34;;;;;;;0.65;0.57;;;31.60;99.90;;;;;;4968701;28;20051;-88
2023/06/20 11:44:00;;;;;;;0.47;0.40;;;32.10;99.90;;;;;;4970082;28;20074;-89
2023/06/20 11:46:26;;;;;;;0.50;0.43;;;31.90;99.90;;;;;;4970366;28;20382;-88
2023/06/20 11:48:56;;;;;;;1.13;0.80;;;31.80;99.90;;;;;;4967989;28;20047;-88
2023/06/20 11:51:24;;;;;;;1.55;1.08;;;31.80;99.90;;;;;;4970152;28;20497;-89
2023/06/20 11:54:11;;;;;;;0.70;0.57;;;32.10;99.90;;;;;;4984477;28;20134;-89
2023/06/20 11:56:37;;;;;;;0.95;0.80;;;32.30;99.90;;;;;;4970254;28;20438;-89
2023/06/20 11:59:03;;;;;;;4.38;1.90;;;32.60;99.90;;;;;;4985837;28;20189;-89
2023/06/20 12:01:32;;;;;;;1.65;1.00;;;32.50;99.90;;;;;;4969423;28;21089;-89
2023/06/20 12:04:06;;;;;;;1.75;0.75;;;31.90;99.90;;;;;;4968251;28;20082;-86
2023/06/20 12:06:34;;;;;;;0.53;0.50;;;32.70;99.90;;;;;;4968535;28;20058;-87
2023/06/20 12:09:17;;;;;;;0.68;0.55;;;32.50;99.90;;;;;;4970152;28;20174;-87
2023/06/20 12:11:52;;;;;;;3.03;1.23;;;32.10;99.90;;;;;;4968676;28;20051;-86
2023/06/20 12:14:19;;;;;;;;;;;32.30;99.90;;;;;;4970348;28;20099;-86
2023/06/20 12:16:44;;;;;;;0.50;0.50;;;32.30;99.90;;;;;;4951821;28;19929;-86
2023/06/20 12:19:10;;;;;;;0.05;0.05;;;32.80;99.90;;;;;;4984542;28;20042;-86
2023/06/20 12:21:39;;;;;;;0.50;0.30;;;33.00;99.90;;;;;;4969998;28;20046;-86
2023/06/20 12:24:09;;;;;;;0.60;0.57;;;33.80;99.90;;;;;;4992022;28;20470;-87
2023/06/20 12:26:36;;;;;;;0.80;0.60;;;33.30;99.90;;;;;;4975854;28;20050;-86
2023/06/20 12:29:02;;;;;;;0.77;0.63;;;33.40;92.70;;;;;;4969367;28;20402;-86
2023/06/20 12:31:28;;;;;;;0.25;0.25;;;33.90;92.90;;;;;;4969501;28;20055;-86
2023/06/20 12:33:54;;;;;;;0.55;0.47;;;34.30;71.10;;;;;;4969294;28;20139;-87
2023/06/20 12:36:20;;;;;;;1.33;0.70;;;33.50;44.10;;;;;;4969667;28;20058;-86
2023/06/20 12:38:46;;;;;;;0.47;0.40;;;33.70;51.40;;;;;;4967126;28;20089;-86
2023/06/20 12:41:12;;;;;;;0.13;0.13;;;33.60;53.20;;;;;;4968210;28;20054;-86
2023/06/20 12:43:38;;;;;;;2.35;1.33;;;34.10;56.50;;;;;;4969556;28;20038;-86
2023/06/20 12:46:04;;;;;;;0.32;0.32;;;34.40;50.00;;;;;;4984397;28;20051;-87
2023/06/20 12:48:29;;;;;;;1.48;0.85;;;33.10;18.30;;;;;;4971367;28;20520;-86
2023/06/20 12:50:55;;;;;;;0.70;0.70;;;32.30;1.00;;;;;;4972321;28;20149;-86
2023/06/20 12:53:21;;;;;;;0.28;0.20;;;32.10;1.70;;;;;;4984151;28;20058;-87
2023/06/20 12:55:47;;;;;;;0.52;0.40;;;31.60;1.00;;;;;;4969120;28;20137;-87